Time;durP1;ratioP1;P1;durP2;ratioP2;P2;SDS_P1;SDS_P2;PMS_P1;PMS_P2;Temp;Humidity;BMP_temperature;BMP_pressure;BME280_temperature;BME280_humidity;BME280_pressure;Samples;Min_cycle;Max_cycle;Signal;HPM_P1;HPM_P2
2021/05/27 00:01:46;;;;;;;18.58;17.55;;;10.90;86.40;;;;;;5030177;28;20946;-76
2021/05/27 00:04:13;;;;;;;18.95;18.05;;;10.90;87.40;;;;;;5019813;28;20300;-76
2021/05/27 00:06:40;;;;;;;18.88;17.80;;;10.80;87.10;;;;;;5023779;28;20197;-76
2021/05/27 00:09:06;;;;;;;19.17;18.27;;;10.90;87.00;;;;;;5020999;28;20199;-76
2021/05/27 00:11:33;;;;;;;19.30;18.15;;;10.90;86.80;;;;;;5026497;28;20218;-76
2021/05/27 00:13:59;;;;;;;18.98;18.08;;;10.80;86.90;;;;;;5040372;28;20212;-76
2021/05/27 00:16:26;;;;;;;19.00;18.10;;;10.80;87.10;;;;;;5031452;28;20703;-76
2021/05/27 00:18:52;;;;;;;18.45;17.55;;;10.80;86.90;;;;;;5023058;28;20968;-76
2021/05/27 00:21:21;;;;;;;18.50;17.60;;;10.90;86.80;;;;;;5022122;28;20944;-76
2021/05/27 00:23:47;;;;;;;18.38;17.58;;;10.90;86.60;;;;;;5014370;28;20194;-76
2021/05/27 00:26:14;;;;;;;18.87;17.90;;;10.90;86.50;;;;;;5008632;28;20201;-76
2021/05/27 00:28:40;;;;;;;18.55;17.58;;;10.90;86.70;;;;;;5023693;28;20456;-77
2021/05/27 00:31:07;;;;;;;19.02;18.02;;;10.90;86.90;;;;;;5022644;28;20608;-76
2021/05/27 00:33:34;;;;;;;18.50;17.70;;;10.80;87.00;;;;;;5030464;28;20245;-76
2021/05/27 00:36:00;;;;;;;19.25;18.25;;;10.80;87.40;;;;;;5021018;28;20201;-76
2021/05/27 00:38:28;;;;;;;19.48;18.27;;;10.80;87.30;;;;;;5023798;28;20729;-76
2021/05/27 00:40:54;;;;;;;18.05;17.15;;;10.80;87.20;;;;;;5023038;28;20212;-77
2021/05/27 00:43:21;;;;;;;18.13;17.33;;;10.70;87.50;;;;;;5020650;28;20229;-76
2021/05/27 00:45:47;;;;;;;18.45;17.55;;;10.70;87.40;;;;;;5022319;28;20209;-76
2021/05/27 00:50:54;;;;;;;19.13;17.80;;;10.70;87.50;;;;;;5028230;28;20280;-77
2021/05/27 00:53:24;;;;;;;18.35;17.55;;;10.60;88.00;;;;;;5016463;28;20220;-76
2021/05/27 00:55:51;;;;;;;18.80;17.90;;;10.60;88.40;;;;;;5022381;28;20204;-76
2021/05/27 00:58:19;;;;;;;19.10;18.20;;;10.60;89.00;;;;;;5023053;28;20221;-76
2021/05/27 01:00:46;;;;;;;19.75;18.65;;;10.70;88.10;;;;;;5023397;28;20308;-76
2021/05/27 01:03:12;;;;;;;19.10;18.20;;;10.70;88.10;;;;;;5023053;28;20225;-77
2021/05/27 01:05:39;;;;;;;18.83;17.92;;;10.60;88.10;;;;;;5020380;28;20197;-76
2021/05/27 01:08:06;;;;;;;18.60;17.70;;;10.60;88.10;;;;;;5011777;28;20197;-76
2021/05/27 01:10:32;;;;;;;19.83;18.52;;;10.60;88.50;;;;;;5034021;28;20239;-77
2021/05/27 01:13:00;;;;;;;19.75;18.75;;;10.60;88.50;;;;;;5012929;28;20220;-76
2021/05/27 01:15:29;;;;;;;20.55;19.05;;;10.60;88.30;;;;;;5021637;28;20686;-76
2021/05/27 01:17:55;;;;;;;20.13;19.13;;;10.60;87.90;;;;;;5018118;28;20225;-76
2021/05/27 01:20:22;;;;;;;19.73;18.83;;;10.60;88.20;;;;;;5011953;28;20548;-77
2021/05/27 01:22:49;;;;;;;19.20;18.20;;;10.50;89.10;;;;;;5029317;28;20573;-77
2021/05/27 01:25:16;;;;;;;20.58;19.58;;;10.60;88.20;;;;;;5031173;28;20516;-77
2021/05/27 01:27:42;;;;;;;20.60;19.40;;;10.60;87.80;;;;;;5026015;28;20208;-77
2021/05/27 01:30:11;;;;;;;19.67;18.77;;;10.60;87.50;;;;;;5020690;28;20198;-77
2021/05/27 01:32:38;;;;;;;20.90;19.55;;;10.60;87.60;;;;;;5028603;28;20216;-77
2021/05/27 01:35:07;;;;;;;19.83;18.93;;;10.50;87.80;;;;;;5025439;28;20196;-76
2021/05/27 01:37:36;;;;;;;21.13;19.60;;;10.50;88.30;;;;;;5026496;28;20482;-76
2021/05/27 01:40:05;;;;;;;19.20;18.10;;;10.50;88.60;;;;;;5020701;28;20202;-77
2021/05/27 01:42:31;;;;;;;19.42;18.50;;;10.50;88.20;;;;;;5023978;28;20476;-77
2021/05/27 01:44:57;;;;;;;20.15;19.20;;;10.50;88.10;;;;;;5025743;28;20766;-76
2021/05/27 01:47:24;;;;;;;20.20;19.00;;;10.50;88.30;;;;;;5026312;28;20287;-77
2021/05/27 01:49:50;;;;;;;19.80;18.73;;;10.50;88.10;;;;;;5008901;28;20574;-77
2021/05/27 01:52:17;;;;;;;19.42;18.52;;;10.60;87.90;;;;;;5009423;28;20225;-76
2021/05/27 01:54:43;;;;;;;19.92;18.98;;;10.60;88.10;;;;;;5024936;28;20748;-77
2021/05/27 01:57:10;;;;;;;19.33;18.33;;;10.60;88.00;;;;;;5025769;28;20212;-77
2021/05/27 01:59:37;;;;;;;20.00;19.10;;;10.60;88.10;;;;;;5025922;28;20212;-77
2021/05/27 02:02:04;;;;;;;19.50;18.50;;;10.50;88.30;;;;;;5006745;28;20237;-77
2021/05/27 02:04:30;;;;;;;22.90;20.90;;;10.60;88.60;;;;;;5010014;28;20276;-77
2021/05/27 02:06:57;;;;;;;18.85;17.90;;;10.50;88.60;;;;;;5015835;28;20663;-77
2021/05/27 02:09:23;;;;;;;20.00;19.00;;;10.50;88.70;;;;;;5027404;28;20230;-77
2021/05/27 02:11:50;;;;;;;20.13;19.10;;;10.50;88.60;;;;;;5026419;28;20221;-76
2021/05/27 02:14:19;;;;;;;20.00;19.00;;;10.60;88.00;;;;;;5025913;28;20404;-76
2021/05/27 02:16:47;;;;;;;19.83;18.70;;;10.60;87.50;;;;;;5014156;28;20212;-76
2021/05/27 02:19:13;;;;;;;19.20;18.30;;;10.60;87.10;;;;;;5016679;28;20222;-76
2021/05/27 02:21:40;;;;;;;21.07;20.00;;;10.60;86.90;;;;;;5008371;28;21135;-76
2021/05/27 02:24:09;;;;;;;19.90;18.98;;;10.50;87.30;;;;;;5012566;28;20456;-76
2021/05/27 02:26:35;;;;;;;21.08;19.88;;;10.50;87.10;;;;;;5012779;28;20197;-76
2021/05/27 02:29:02;;;;;;;19.00;18.10;;;10.50;86.90;;;;;;5042688;28;20208;-76
2021/05/27 02:31:29;;;;;;;19.73;18.63;;;10.60;86.90;;;;;;5031647;28;20674;-77
2021/05/27 02:33:56;;;;;;;19.70;18.80;;;10.50;86.70;;;;;;5028031;28;20270;-76
2021/05/27 02:36:23;;;;;;;21.40;20.23;;;10.50;86.70;;;;;;5009203;28;20309;-77
2021/05/27 02:38:50;;;;;;;18.92;17.92;;;10.50;86.90;;;;;;5021296;28;20264;-76
2021/05/27 02:41:17;;;;;;;19.20;18.20;;;10.50;87.30;;;;;;5025218;28;20201;-76
2021/05/27 02:43:44;;;;;;;19.02;18.13;;;10.60;87.30;;;;;;5024728;28;20209;-76
2021/05/27 02:46:10;;;;;;;18.85;17.95;;;10.50;87.30;;;;;;5012510;28;20213;-77
2021/05/27 02:48:37;;;;;;;18.48;17.58;;;10.50;87.90;;;;;;5023818;28;20202;-77
2021/05/27 02:51:05;;;;;;;18.90;17.77;;;10.50;88.20;;;;;;5014231;28;20206;-78
2021/05/27 02:53:32;;;;;;;20.63;19.42;;;10.50;88.10;;;;;;5024927;28;20316;-77
2021/05/27 02:55:58;;;;;;;18.85;17.95;;;10.40;88.10;;;;;;5014486;28;20762;-78
2021/05/27 02:58:25;;;;;;;18.13;16.92;;;10.50;88.30;;;;;;5007646;28;20224;-77
2021/05/27 03:00:51;;;;;;;19.17;18.08;;;10.40;88.80;;;;;;5022470;28;20921;-77
2021/05/27 03:03:20;;;;;;;18.20;17.40;;;10.40;88.50;;;;;;5026088;28;20934;-77
2021/05/27 03:05:48;;;;;;;18.80;17.90;;;10.50;88.10;;;;;;5029401;28;20206;-77
2021/05/27 03:08:14;;;;;;;41.53;21.70;;;10.50;88.20;;;;;;5028520;28;20189;-77
2021/05/27 03:10:41;;;;;;;19.38;18.25;;;10.50;88.60;;;;;;5029186;28;20931;-80
2021/05/27 03:13:08;;;;;;;19.23;18.23;;;10.50;88.20;;;;;;5028547;28;20723;-77
2021/05/27 03:15:35;;;;;;;19.80;18.90;;;10.50;88.10;;;;;;5018495;28;20194;-77
2021/05/27 03:18:02;;;;;;;19.55;18.45;;;10.50;88.10;;;;;;5027703;28;20754;-77
2021/05/27 03:20:28;;;;;;;20.00;18.85;;;10.50;88.00;;;;;;5028421;28;20292;-77
2021/05/27 03:22:56;;;;;;;20.17;18.83;;;10.40;88.10;;;;;;5028930;28;21207;-77
2021/05/27 03:25:23;;;;;;;19.67;18.58;;;10.30;88.60;;;;;;5021253;28;20288;-77
2021/05/27 03:27:49;;;;;;;19.95;18.90;;;10.30;88.40;;;;;;5025008;28;20698;-77
2021/05/27 03:30:16;;;;;;;21.60;20.50;;;10.30;88.50;;;;;;5022331;28;20212;-77
2021/05/27 03:32:43;;;;;;;19.98;18.98;;;10.30;88.20;;;;;;5019753;28;20208;-77
2021/05/27 03:35:10;;;;;;;20.02;18.90;;;10.30;88.20;;;;;;5021793;28;20610;-77
2021/05/27 03:37:37;;;;;;;19.92;18.70;;;10.30;88.10;;;;;;5027868;28;20260;-77
2021/05/27 03:40:12;;;;;;;21.90;20.80;;;10.20;88.80;;;;;;5024010;28;20198;-79
2021/05/27 03:42:41;;;;;;;19.80;18.60;;;10.30;88.60;;;;;;5026980;28;20221;-77
2021/05/27 03:45:09;;;;;;;20.92;19.90;;;10.20;88.50;;;;;;5024576;28;20210;-76
2021/05/27 03:47:37;;;;;;;20.00;19.10;;;10.30;88.40;;;;;;5022782;28;20193;-76
2021/05/27 03:50:05;;;;;;;19.13;18.23;;;10.40;88.20;;;;;;5018303;28;20209;-77
2021/05/27 03:52:31;;;;;;;19.80;18.80;;;10.30;88.70;;;;;;5004728;28;20244;-77
2021/05/27 03:54:57;;;;;;;19.52;18.30;;;10.40;89.00;;;;;;5029770;28;20201;-77
2021/05/27 03:57:25;;;;;;;19.52;18.63;;;10.40;89.10;;;;;;5008455;28;20282;-76
2021/05/27 04:02:40;;;;;;;21.35;20.15;;;10.40;88.70;;;;;;5015839;28;20358;-76
2021/05/27 04:07:53;;;;;;;19.55;18.60;;;10.70;86.60;;;;;;5010522;28;20924;-76
2021/05/27 04:10:19;;;;;;;22.27;21.08;;;10.70;86.10;;;;;;5013884;28;20205;-77
2021/05/27 04:12:47;;;;;;;21.00;20.00;;;10.80;86.30;;;;;;5017433;28;20213;-77
2021/05/27 04:15:22;;;;;;;22.23;20.90;;;10.80;86.00;;;;;;5016608;28;20237;-77
2021/05/27 04:17:54;;;;;;;25.58;24.27;;;10.90;85.50;;;;;;5008940;28;20922;-77
2021/05/27 04:20:21;;;;;;;21.48;20.38;;;11.00;85.10;;;;;;5015970;28;20202;-77
2021/05/27 04:22:48;;;;;;;20.83;19.60;;;10.90;85.30;;;;;;5028570;28;20636;-77
2021/05/27 04:25:16;;;;;;;21.63;20.42;;;10.90;85.20;;;;;;5020952;28;20643;-77
2021/05/27 04:27:43;;;;;;;24.48;23.08;;;11.00;84.80;;;;;;5022600;28;20212;-77
2021/05/27 04:30:13;;;;;;;20.90;19.85;;;11.10;84.70;;;;;;5027669;28;20217;-75
2021/05/27 04:32:56;;;;;;;23.33;22.00;;;11.10;84.80;;;;;;5032571;28;20216;-77
2021/05/27 04:35:34;;;;;;;23.65;22.50;;;11.10;84.60;;;;;;5014798;28;20549;-77
2021/05/27 04:38:04;;;;;;;24.58;23.38;;;11.20;84.60;;;;;;5021098;28;20279;-77
2021/05/27 04:40:31;;;;;;;26.10;24.50;;;11.20;84.40;;;;;;5026052;28;20208;-77
2021/05/27 04:42:58;;;;;;;24.13;22.73;;;11.20;84.50;;;;;;5027550;28;20579;-77
2021/05/27 04:45:26;;;;;;;22.53;21.30;;;11.20;84.30;;;;;;5026120;28;20670;-77
2021/05/27 04:47:53;;;;;;;26.07;24.83;;;11.30;84.20;;;;;;5027738;28;20478;-77
2021/05/27 04:50:21;;;;;;;22.20;21.00;;;11.30;84.30;;;;;;5014849;28;20564;-77
2021/05/27 04:52:48;;;;;;;25.27;23.98;;;11.30;84.20;;;;;;5022415;28;20482;-83
2021/05/27 04:55:16;;;;;;;21.47;20.20;;;11.40;83.50;;;;;;5035545;28;20197;-77
2021/05/27 04:57:43;;;;;;;23.15;21.85;;;11.40;83.90;;;;;;5025413;28;20591;-77
2021/05/27 05:00:12;;;;;;;24.17;22.87;;;11.40;84.10;;;;;;5024416;28;20219;-77
2021/05/27 05:02:40;;;;;;;26.50;25.20;;;11.50;84.50;;;;;;5026596;28;20607;-77
2021/05/27 05:05:08;;;;;;;22.70;21.60;;;11.50;84.40;;;;;;5025079;28;20458;-78
2021/05/27 05:07:35;;;;;;;21.80;20.50;;;11.60;83.80;;;;;;5026936;28;20525;-77
2021/05/27 05:10:01;;;;;;;27.80;26.40;;;11.80;82.30;;;;;;5029533;28;20198;-77
2021/05/27 05:12:28;;;;;;;24.77;23.47;;;11.70;82.50;;;;;;5032412;28;20483;-78
2021/05/27 05:14:54;;;;;;;22.70;21.50;;;11.70;83.10;;;;;;5040666;28;20575;-77
2021/05/27 05:17:24;;;;;;;24.57;23.27;;;11.80;83.10;;;;;;5025682;28;20460;-77
2021/05/27 05:19:51;;;;;;;25.10;23.60;;;11.90;81.90;;;;;;5018314;28;20462;-77
2021/05/27 05:22:17;;;;;;;23.07;21.93;;;12.00;81.30;;;;;;5026472;28;20510;-78
2021/05/27 05:24:45;;;;;;;22.33;21.13;;;12.00;80.50;;;;;;5015441;28;20467;-78
2021/05/27 05:27:12;;;;;;;23.40;22.20;;;12.00;80.40;;;;;;5022356;28;20471;-77
2021/05/27 05:29:38;;;;;;;23.87;22.47;;;12.10;79.50;;;;;;5020828;28;20494;-78
2021/05/27 05:32:05;;;;;;;22.90;21.70;;;12.10;79.70;;;;;;5005952;28;20480;-78
2021/05/27 05:34:31;;;;;;;22.77;21.43;;;12.10;79.10;;;;;;5036112;28;20457;-77
2021/05/27 05:36:58;;;;;;;21.70;20.50;;;12.20;78.80;;;;;;5030248;28;20473;-76
2021/05/27 05:39:25;;;;;;;23.70;22.20;;;12.30;78.80;;;;;;5015007;28;20295;-77
2021/05/27 05:41:51;;;;;;;25.47;24.07;;;12.30;78.70;;;;;;5022096;28;20522;-77
2021/05/27 05:44:18;;;;;;;23.47;22.27;;;12.30;78.50;;;;;;5034640;28;20478;-76
2021/05/27 05:46:45;;;;;;;23.17;21.97;;;12.40;78.00;;;;;;5018775;28;20521;-77
2021/05/27 05:49:11;;;;;;;25.40;24.00;;;12.40;77.50;;;;;;5022077;28;20543;-77
2021/05/27 05:51:37;;;;;;;23.57;22.37;;;12.50;77.20;;;;;;5013638;28;21891;-77
2021/05/27 05:54:05;;;;;;;25.40;24.00;;;12.50;77.00;;;;;;5014970;28;20474;-76
2021/05/27 05:56:32;;;;;;;25.10;23.70;;;12.60;77.00;;;;;;5011985;28;20456;-78
2021/05/27 05:58:58;;;;;;;24.70;23.10;;;12.70;76.10;;;;;;5009452;28;20846;-79
2021/05/27 06:01:25;;;;;;;26.67;25.17;;;12.60;76.70;;;;;;5013742;28;20467;-77
2021/05/27 06:03:52;;;;;;;24.63;23.10;;;12.60;77.00;;;;;;5013339;28;20460;-78
2021/05/27 06:06:18;;;;;;;26.93;24.50;;;12.60;75.80;;;;;;5016967;28;20455;-78
2021/05/27 06:08:44;;;;;;;24.30;23.00;;;12.70;76.00;;;;;;5015406;28;21304;-79
2021/05/27 06:11:12;;;;;;;26.30;24.70;;;12.60;75.10;;;;;;5024083;28;20468;-77
2021/05/27 06:13:38;;;;;;;28.37;25.50;;;12.70;74.40;;;;;;5021951;28;20519;-78
2021/05/27 06:16:05;;;;;;;29.13;26.27;;;12.80;74.40;;;;;;5018320;28;21055;-79
2021/05/27 06:18:31;;;;;;;24.30;22.70;;;13.00;73.40;;;;;;5019054;28;21085;-78
2021/05/27 06:20:58;;;;;;;28.43;25.67;;;12.70;71.90;;;;;;5022031;28;21250;-79
2021/05/27 06:23:24;;;;;;;25.20;23.20;;;12.70;73.60;;;;;;5022188;28;20483;-79
2021/05/27 06:25:51;;;;;;;26.43;24.17;;;12.80;72.50;;;;;;5008014;28;20491;-77
2021/05/27 06:28:28;;;;;;;24.77;22.97;;;13.00;72.10;;;;;;5014765;28;20468;-76
2021/05/27 06:30:56;;;;;;;25.60;24.17;;;13.20;71.20;;;;;;5017684;28;20553;-76
2021/05/27 06:33:22;;;;;;;30.80;28.73;;;13.20;69.30;;;;;;5011475;28;20524;-76
2021/05/27 06:35:48;;;;;;;24.73;23.33;;;13.30;69.10;;;;;;5012266;28;20468;-76
2021/05/27 06:38:15;;;;;;;24.93;23.53;;;13.40;68.10;;;;;;5014373;28;20574;-75
2021/05/27 06:40:42;;;;;;;26.60;25.20;;;13.40;68.40;;;;;;5016744;28;21016;-75
2021/05/27 06:43:09;;;;;;;26.53;25.03;;;13.20;68.60;;;;;;5019163;28;21131;-76
2021/05/27 06:45:37;;;;;;;25.30;23.70;;;13.30;68.80;;;;;;5012209;28;20768;-76
2021/05/27 06:48:05;;;;;;;26.10;24.70;;;13.20;68.60;;;;;;5024851;28;20466;-76
2021/05/27 06:50:35;;;;;;;24.73;23.43;;;13.20;68.60;;;;;;5015284;28;21260;-76
2021/05/27 06:53:03;;;;;;;25.60;24.20;;;13.20;68.80;;;;;;5022158;28;21300;-76
2021/05/27 06:55:30;;;;;;;25.70;24.27;;;13.20;69.60;;;;;;5019328;28;20990;-76
2021/05/27 06:57:56;;;;;;;25.50;24.00;;;13.50;69.90;;;;;;5021872;28;20554;-76
2021/05/27 07:00:23;;;;;;;24.87;23.47;;;13.80;69.20;;;;;;5019997;28;20466;-75
2021/05/27 07:02:51;;;;;;;24.83;23.20;;;14.00;68.20;;;;;;5016748;28;21010;-76
2021/05/27 07:05:19;;;;;;;25.23;23.93;;;14.20;66.90;;;;;;5014786;28;20460;-75
2021/05/27 07:07:46;;;;;;;24.80;23.50;;;14.30;66.90;;;;;;5015104;28;20466;-76
2021/05/27 07:10:14;;;;;;;25.10;23.50;;;14.60;66.10;;;;;;5018718;28;20961;-77
2021/05/27 07:12:47;;;;;;;24.77;23.47;;;14.90;65.80;;;;;;5018890;28;21085;-76
2021/05/27 07:15:15;;;;;;;24.90;23.50;;;15.20;63.90;;;;;;5018293;28;20512;-77
2021/05/27 07:17:41;;;;;;;25.07;23.77;;;15.50;62.70;;;;;;5011821;28;20579;-77
2021/05/27 07:20:10;;;;;;;25.83;23.80;;;15.60;62.30;;;;;;5014573;28;20459;-77
2021/05/27 07:22:36;;;;;;;25.97;24.60;;;15.60;61.80;;;;;;5016725;28;20477;-77
2021/05/27 07:25:04;;;;;;;25.20;23.80;;;15.30;60.60;;;;;;5013235;28;20468;-77
2021/05/27 07:27:31;;;;;;;26.57;25.00;;;15.00;61.80;;;;;;5017784;28;20491;-77
2021/05/27 07:29:57;;;;;;;26.90;25.53;;;14.80;62.20;;;;;;5015451;28;20523;-77
2021/05/27 07:32:24;;;;;;;25.57;24.17;;;14.80;62.30;;;;;;5018465;28;20886;-77
2021/05/27 07:34:51;;;;;;;24.90;23.50;;;14.90;61.60;;;;;;5025568;28;20452;-77
2021/05/27 07:37:19;;;;;;;26.43;24.80;;;14.90;63.80;;;;;;5023230;28;20460;-77
2021/05/27 07:39:46;;;;;;;27.70;26.00;;;15.10;60.60;;;;;;5017338;28;20941;-75
2021/05/27 07:42:13;;;;;;;25.60;24.20;;;15.00;60.30;;;;;;5019140;28;20479;-76
2021/05/27 07:44:39;;;;;;;25.13;23.83;;;14.70;60.80;;;;;;5019939;28;20457;-77
2021/05/27 07:47:06;;;;;;;26.37;24.87;;;14.70;61.90;;;;;;5016064;28;20456;-76
2021/05/27 07:49:32;;;;;;;24.87;23.50;;;14.70;62.00;;;;;;5019645;28;20981;-76
2021/05/27 07:51:59;;;;;;;25.30;23.67;;;14.60;61.30;;;;;;5020758;28;21007;-76
2021/05/27 07:54:27;;;;;;;25.43;23.93;;;14.90;61.70;;;;;;5017665;28;20452;-76
2021/05/27 07:56:54;;;;;;;24.43;23.00;;;15.00;61.50;;;;;;5006220;28;20449;-76
2021/05/27 07:59:20;;;;;;;24.57;23.20;;;15.20;61.40;;;;;;5011191;28;21072;-76
2021/05/27 08:01:47;;;;;;;24.50;23.17;;;15.20;59.80;;;;;;5012401;28;20483;-77
2021/05/27 08:04:14;;;;;;;24.00;22.80;;;15.30;60.80;;;;;;5015878;28;20460;-76
2021/05/27 08:06:41;;;;;;;24.57;23.37;;;15.50;60.60;;;;;;5020687;28;20987;-77
2021/05/27 08:09:10;;;;;;;25.97;24.47;;;15.70;60.00;;;;;;5016882;28;20499;-76
2021/05/27 08:11:38;;;;;;;25.27;23.67;;;15.50;58.10;;;;;;5016776;28;20515;-76
2021/05/27 08:14:04;;;;;;;25.10;23.80;;;15.30;58.90;;;;;;5017108;28;20462;-77
2021/05/27 08:16:31;;;;;;;24.77;23.37;;;15.30;59.60;;;;;;5009954;28;20467;-77
2021/05/27 08:18:57;;;;;;;24.90;23.53;;;15.50;59.90;;;;;;5022939;28;20495;-76
2021/05/27 08:21:24;;;;;;;30.97;29.40;;;15.90;58.10;;;;;;5008541;28;20505;-76
2021/05/27 08:23:51;;;;;;;25.70;24.20;;;15.90;57.20;;;;;;5013943;28;20547;-77
2021/05/27 08:26:17;;;;;;;25.60;24.20;;;15.80;57.30;;;;;;5014980;28;20467;-77
2021/05/27 08:28:46;;;;;;;25.83;24.30;;;15.80;57.60;;;;;;5016294;28;20455;-77
2021/05/27 08:31:13;;;;;;;27.97;26.17;;;16.00;57.70;;;;;;5014168;28;20548;-77
2021/05/27 08:33:39;;;;;;;27.00;25.60;;;16.40;57.20;;;;;;5021138;28;20464;-77
2021/05/27 08:36:07;;;;;;;27.30;25.80;;;16.60;55.80;;;;;;5017546;28;20482;-77
2021/05/27 08:38:34;;;;;;;27.17;25.67;;;16.90;54.80;;;;;;5017965;28;20540;-77
2021/05/27 08:41:01;;;;;;;26.97;25.20;;;17.10;54.70;;;;;;5019344;28;20475;-78
2021/05/27 08:43:28;;;;;;;27.47;25.77;;;17.00;53.90;;;;;;5020539;28;21336;-77
2021/05/27 08:45:58;;;;;;;26.07;24.67;;;16.70;55.10;;;;;;5017303;28;20460;-77
2021/05/27 08:48:24;;;;;;;25.70;24.30;;;16.60;54.70;;;;;;5010596;28;20453;-77
2021/05/27 08:50:52;;;;;;;25.03;23.63;;;16.50;55.90;;;;;;5011319;28;20979;-77
2021/05/27 08:53:19;;;;;;;29.97;28.47;;;16.60;56.10;;;;;;5019216;28;20505;-77
2021/05/27 08:55:47;;;;;;;25.90;24.50;;;16.60;54.10;;;;;;5011641;28;20544;-77
2021/05/27 08:58:18;;;;;;;25.43;24.10;;;16.50;55.30;;;;;;5021670;28;20480;-77
2021/05/27 09:00:45;;;;;;;27.40;25.50;;;16.10;55.00;;;;;;5013600;28;23144;-78
2021/05/27 09:03:15;;;;;;;30.27;28.47;;;16.10;54.20;;;;;;5021447;28;21009;-78
2021/05/27 09:05:41;;;;;;;26.50;25.00;;;16.10;55.10;;;;;;5017963;28;20910;-77
2021/05/27 09:08:09;;;;;;;25.70;24.30;;;16.30;55.50;;;;;;5019643;28;20460;-78
2021/05/27 09:10:40;;;;;;;24.90;23.60;;;16.50;54.50;;;;;;5021066;28;20859;-78
2021/05/27 09:13:12;;;;;;;26.30;24.80;;;16.70;54.30;;;;;;5018437;28;20482;-78
2021/05/27 09:15:39;;;;;;;25.50;24.20;;;16.70;53.50;;;;;;5017576;28;20506;-78
2021/05/27 09:18:06;;;;;;;26.17;24.77;;;17.00;53.50;;;;;;5021805;28;21034;-78
2021/05/27 09:20:34;;;;;;;28.00;26.20;;;17.30;53.30;;;;;;5017019;28;20468;-78
2021/05/27 09:23:12;;;;;;;26.70;25.30;;;17.70;52.40;;;;;;5019153;28;20476;-77
2021/05/27 09:25:40;;;;;;;27.17;25.53;;;17.70;51.00;;;;;;5013290;28;20808;-77
2021/05/27 09:28:08;;;;;;;25.23;23.80;;;17.60;51.70;;;;;;5014510;28;20465;-77
2021/05/27 09:30:43;;;;;;;25.07;23.60;;;17.50;51.40;;;;;;5009954;28;20467;-77
2021/05/27 09:33:10;;;;;;;28.70;27.03;;;17.30;52.10;;;;;;5013568;28;21058;-77
2021/05/27 09:35:38;;;;;;;25.20;23.80;;;17.30;52.70;;;;;;5012471;28;20969;-77
2021/05/27 09:38:05;;;;;;;24.63;23.33;;;17.40;52.50;;;;;;5013477;28;20881;-77
2021/05/27 09:40:36;;;;;;;25.00;23.50;;;17.50;52.30;;;;;;5012831;28;20927;-77
2021/05/27 09:43:02;;;;;;;25.83;24.40;;;17.60;52.40;;;;;;5014020;28;21125;-77
2021/05/27 09:45:30;;;;;;;27.70;26.20;;;17.80;52.30;;;;;;5014314;28;20463;-77
2021/05/27 09:47:57;;;;;;;26.33;24.83;;;18.10;51.10;;;;;;5016209;28;20491;-77
2021/05/27 09:50:31;;;;;;;26.37;24.97;;;18.00;50.50;;;;;;5013287;28;20473;-77
2021/05/27 09:53:12;;;;;;;26.40;24.90;;;18.00;50.50;;;;;;5016676;28;20569;-77
2021/05/27 09:55:39;;;;;;;26.10;24.47;;;17.80;50.60;;;;;;5016286;28;20468;-76
2021/05/27 09:58:10;;;;;;;25.77;24.27;;;17.60;52.20;;;;;;5017815;28;20533;-76
2021/05/27 10:00:38;;;;;;;28.53;26.93;;;17.50;52.20;;;;;;5017130;28;20479;-76
2021/05/27 10:03:27;;;;;;;25.27;23.87;;;17.70;52.30;;;;;;5012867;28;21063;-77
2021/05/27 10:05:54;;;;;;;25.53;24.03;;;17.30;51.90;;;;;;5016528;28;20495;-76
2021/05/27 10:08:22;;;;;;;25.57;24.17;;;17.20;52.20;;;;;;5016080;28;20453;-74
2021/05/27 10:10:50;;;;;;;25.13;23.63;;;17.20;52.20;;;;;;5020880;28;21117;-75
2021/05/27 10:13:20;;;;;;;25.73;24.23;;;17.30;52.90;;;;;;5022467;28;20482;-75
2021/05/27 10:15:46;;;;;;;28.47;27.17;;;17.30;51.50;;;;;;5016910;28;20464;-76
2021/05/27 10:18:16;;;;;;;24.90;23.50;;;17.30;51.80;;;;;;5019979;28;20464;-76
2021/05/27 10:20:42;;;;;;;25.40;23.83;;;17.30;52.50;;;;;;5018492;28;20471;-75
2021/05/27 10:23:09;;;;;;;25.77;24.37;;;17.60;51.40;;;;;;5019189;28;20482;-76
2021/05/27 10:25:36;;;;;;;28.80;27.10;;;17.30;50.80;;;;;;5008766;28;20461;-77
2021/05/27 10:28:09;;;;;;;26.90;25.33;;;16.80;52.00;;;;;;5023000;28;21004;-80
2021/05/27 10:30:37;;;;;;;27.07;25.30;;;16.20;53.00;;;;;;5020579;28;20464;-81
2021/05/27 10:33:06;;;;;;;25.53;24.07;;;15.80;53.90;;;;;;5027346;28;20520;-79
2021/05/27 10:35:46;;;;;;;26.27;24.77;;;15.60;54.90;;;;;;5032640;28;20471;-83
2021/05/27 10:38:13;;;;;;;27.50;25.73;;;15.60;55.50;;;;;;5020077;28;20466;-78
2021/05/27 10:40:42;;;;;;;28.60;26.93;;;15.80;55.60;;;;;;5019915;28;20495;-75
2021/05/27 10:43:14;;;;;;;25.50;24.10;;;15.80;55.90;;;;;;5020212;28;20491;-73
2021/05/27 10:46:09;;;;;;;26.70;25.30;;;15.80;56.00;;;;;;5019654;28;20478;-79
2021/05/27 10:48:44;;;;;;;28.33;26.73;;;15.80;56.90;;;;;;4966711;28;20456;-79
2021/05/27 10:51:19;;;;;;;25.30;23.80;;;15.70;57.20;;;;;;5022082;28;20997;-78
2021/05/27 10:53:54;;;;;;;25.57;24.07;;;15.80;57.40;;;;;;5022456;28;20467;-78
2021/05/27 10:56:38;;;;;;;25.50;23.90;;;16.20;57.00;;;;;;5010308;28;20497;-79
2021/05/27 10:59:05;;;;;;;25.10;23.67;;;16.50;56.50;;;;;;5025759;28;20513;-80
2021/05/27 11:01:54;;;;;;;26.13;24.63;;;16.60;55.20;;;;;;5018882;28;20525;-79
2021/05/27 11:04:33;;;;;;;24.80;23.40;;;16.70;55.80;;;;;;5016080;28;20472;-81
2021/05/27 11:07:21;;;;;;;25.20;23.70;;;17.00;55.20;;;;;;5026696;28;20850;-80
2021/05/27 11:09:50;;;;;;;26.30;24.80;;;17.50;54.10;;;;;;5022248;28;20584;-81
2021/05/27 11:12:20;;;;;;;25.93;24.33;;;17.60;52.80;;;;;;5029301;28;20479;-82
2021/05/27 11:15:03;;;;;;;25.20;23.80;;;17.70;53.20;;;;;;5027634;28;20992;-82
2021/05/27 11:17:30;;;;;;;26.50;24.90;;;18.00;52.40;;;;;;5023309;28;21128;-80
2021/05/27 11:19:58;;;;;;;26.00;24.50;;;18.20;52.40;;;;;;5027448;28;20506;-81
2021/05/27 11:23:01;;;;;;;25.40;23.90;;;18.60;51.30;;;;;;5030936;28;20483;-81
2021/05/27 11:25:37;;;;;;;25.47;23.97;;;18.90;51.80;;;;;;5015202;28;20514;-81
2021/05/27 11:28:27;;;;;;;26.73;25.03;;;19.20;51.30;;;;;;5023563;28;20456;-78
2021/05/27 11:30:57;;;;;;;24.90;23.50;;;19.50;50.90;;;;;;5028205;28;20471;-79
2021/05/27 11:33:34;;;;;;;25.80;24.07;;;19.60;49.90;;;;;;5024398;28;20977;-78
2021/05/27 11:36:12;;;;;;;26.60;25.20;;;19.70;49.80;;;;;;5023672;28;20543;-78
2021/05/27 11:38:40;;;;;;;26.40;24.90;;;19.30;48.30;;;;;;5024209;28;20488;-79
2021/05/27 11:41:09;;;;;;;25.30;23.70;;;18.40;49.80;;;;;;5024257;28;20830;-79
2021/05/27 11:43:38;;;;;;;25.37;23.90;;;18.10;50.30;;;;;;5021405;28;20475;-80
2021/05/27 11:46:06;;;;;;;24.93;23.60;;;18.10;50.90;;;;;;5011261;28;20471;-79
2021/05/27 11:48:36;;;;;;;25.97;24.37;;;18.40;49.70;;;;;;5022309;28;20460;-77
2021/05/27 11:51:06;;;;;;;25.50;24.00;;;18.00;50.60;;;;;;5021727;28;20483;-78
2021/05/27 11:53:45;;;;;;;24.60;23.20;;;17.90;51.20;;;;;;5024437;28;20513;-79
2021/05/27 11:56:12;;;;;;;25.40;23.80;;;18.20;51.00;;;;;;5017448;28;20464;-78
2021/05/27 11:58:41;;;;;;;25.27;23.87;;;18.20;51.00;;;;;;5012129;28;20575;-74
2021/05/27 12:01:18;;;;;;;27.57;26.03;;;18.10;51.80;;;;;;5017204;28;20630;-74
2021/05/27 12:04:12;;;;;;;25.00;23.50;;;17.80;51.20;;;;;;5014082;28;20467;-73
2021/05/27 12:07:00;;;;;;;25.83;24.33;;;17.60;51.70;;;;;;5018241;28;20640;-75
2021/05/27 12:09:32;;;;;;;24.57;23.27;;;17.40;52.40;;;;;;5019398;28;21598;-74
2021/05/27 12:12:10;;;;;;;25.93;24.43;;;17.40;52.90;;;;;;5020689;28;20573;-72
2021/05/27 12:14:43;;;;;;;25.93;24.53;;;17.50;52.80;;;;;;5013820;28;20466;-73
2021/05/27 12:17:24;;;;;;;26.03;24.67;;;17.50;52.70;;;;;;5006857;28;20463;-74
2021/05/27 12:19:54;;;;;;;184.87;40.67;;;17.90;52.90;;;;;;5020066;28;20692;-75
2021/05/27 12:22:22;;;;;;;173.47;37.00;;;18.50;51.20;;;;;;5022780;28;20574;-77
2021/05/27 12:25:05;;;;;;;34.07;30.00;;;18.90;50.40;;;;;;5014000;28;21692;-77
2021/05/27 12:27:42;;;;;;;25.57;24.07;;;19.30;49.30;;;;;;5019484;28;20583;-76
2021/05/27 12:30:11;;;;;;;26.83;25.30;;;19.30;48.30;;;;;;5017049;28;20531;-76
2021/05/27 12:32:42;;;;;;;28.27;26.60;;;19.50;48.30;;;;;;5019512;28;20562;-76
2021/05/27 12:35:09;;;;;;;26.00;24.17;;;19.60;49.40;;;;;;5015300;28;20464;-76
2021/05/27 12:37:45;;;;;;;26.17;24.67;;;19.90;48.30;;;;;;5013745;28;20471;-76
2021/05/27 12:40:13;;;;;;;25.67;24.27;;;20.00;48.20;;;;;;5019827;28;20558;-76
2021/05/27 12:42:39;;;;;;;27.10;25.07;;;20.00;48.20;;;;;;5017500;28;20479;-76